ADDS METAR Data INFO
IDs: Format: Raw Decoded Include TAF

Data at: 2308 UTC 21 Feb 2018

KCNB 212255Z AUTO 25004KT 10SM CLR M07/M16 A3057 RMK AO2 T10681159
KCNB 212235Z AUTO 23005KT 10SM CLR M06/M16 A3058 RMK AO2 T10651156
KCNB 212215Z AUTO 21007KT 10SM CLR M06/M16 A3058 RMK AO2 T10631156
KCNB 212155Z AUTO 24005KT 10SM CLR M06/M14 A3058 RMK AO2 T10651145
KCNB 212135Z AUTO 23007KT 10SM CLR M07/M15 A3058 RMK AO2 T10661150
KCNB 212115Z AUTO 23003KT 10SM CLR M07/M15 A3058 RMK AO2 T10671151
KCNB 212055Z AUTO 23003KT 10SM CLR M07/M15 A3058 RMK AO2 T10701150
KCNB 212035Z AUTO 23007KT 10SM CLR M07/M16 A3058 RMK AO2 T10681160
KCNB 212015Z AUTO 24007KT 10SM CLR M07/M16 A3059 RMK AO2 T10711159
KCNB 211955Z AUTO 21007KT 10SM CLR M07/M17 A3059 RMK AO2 T10751170
KCNB 211935Z AUTO 22008KT 10SM CLR M07/M17 A3059 RMK AO2 T10711166
KCNB 211915Z AUTO 22006KT 10SM CLR M08/M17 A3059 RMK AO2 T10761169
KCNB 211855Z AUTO 22007KT 10SM CLR M08/M17 A3059 RMK AO2 T10801172
KCNB 211835Z AUTO 24004KT 10SM CLR M08/M17 A3060 RMK AO2 T10851170
KCNB 211815Z AUTO 22003KT 10SM CLR M09/M17 A3061 RMK AO2 T10871172
KCNB 211755Z AUTO 25003KT 10SM CLR M09/M18 A3061 RMK AO2 T10941177 11094 21185
KCNB 211735Z AUTO 30003KT 10SM CLR M10/M18 A3059 RMK AO2 T11011180
KCNB 211715Z AUTO 31005KT 10SM CLR M11/M18 A3059 RMK AO2 T11071184
KCNB 211655Z AUTO 21007KT 10SM CLR M11/M19 A3058 RMK AO2 T11121187
KCNB 211635Z AUTO 24004KT 10SM CLR M12/M19 A3058 RMK AO2 T11181189
KCNB 211615Z AUTO 26004KT 10SM CLR M12/M19 A3057 RMK AO2 T11241193
KCNB 211555Z AUTO 21006KT 10SM CLR M13/M20 A3056 RMK AO2 T11331196
KCNB 211535Z AUTO 23008KT 10SM CLR M14/M20 A3055 RMK AO2 T11431202
KCNB 211515Z AUTO 22004KT 10SM CLR M15/M21 A3055 RMK AO2 T11511210
KCNB 211455Z AUTO 00000KT 10SM CLR M16/M21 A3056 RMK AO2 T11571212
KCNB 211435Z AUTO 25005KT 10SM CLR M16/M21 A3055 RMK AO2 T11621215
KCNB 211415Z AUTO 27008KT 210V320 10SM CLR M17/M22 A3053 RMK AO2 T11701220
KCNB 211355Z AUTO 29006KT 10SM CLR M17/M22 A3053 RMK AO2 T11721220
KCNB 211335Z AUTO 23003KT 10SM CLR M17/M22 A3053 RMK AO2 T11731221
KCNB 211315Z AUTO 30009KT 230V310 10SM CLR M18/M22 A3051 RMK AO2 T11841224
KCNB 211255Z AUTO 22006KT 10SM CLR M18/M22 A3052 RMK AO2 T11781220
KCNB 211235Z AUTO 00000KT 10SM CLR M18/M22 A3052 RMK AO2 T11801222
KCNB 210755Z AUTO 32008KT 10SM CLR M15/M20 A3044 RMK AO2 T11511197
KCNB 210735Z AUTO 31009KT 250V330 10SM CLR M15/M20 A3044 RMK AO2 T11531196
KCNB 210715Z AUTO 31003KT 10SM CLR M16/M20 A3043 RMK AO2 T11561196
KCNB 210655Z AUTO 26006KT 10SM CLR M15/M19 A3042 RMK AO2 T11531194
KCNB 210635Z AUTO 28008KT 210V320 10SM CLR M15/M19 A3041 RMK AO2 T11531193
KCNB 210615Z AUTO 26009KT 210V310 10SM CLR M15/M19 A3041 RMK AO2 T11521190
KCNB 210555Z AUTO 28009KT 210V320 10SM CLR M15/M19 A3040 RMK AO2 T11471186 11120 21148 410961148
KCNB 201515Z AUTO 29014G20KT 7SM -SN CLR M13/M16 A3004 RMK AO2 T11331161
KCNB 201455Z AUTO 28014G21KT 7SM -SN CLR M13/M16 A3002 RMK AO2 T11351160
KCNB 201435Z AUTO 28014G21KT 4SM -SN BKN014 M14/M16 A3002 RMK AO2 T11371161
KCNB 201415Z AUTO 27013G18KT 2 1/2SM -SN BKN016 BKN024 OVC050 M14/M16 A2999 RMK AO2 T11401162
KCNB 201355Z AUTO 29015G20KT 10SM OVC050 M14/M16 A3001 RMK AO2 T11361160
KCNB 201335Z AUTO 27014KT 10SM OVC055 M13/M16 A2999 RMK AO2 T11351156
KCNB 201315Z AUTO 28010KT 10SM -SN OVC055 M13/M15 A2999 RMK AO2 T11351155
KCNB 201255Z AUTO 28013KT 7SM -SN SCT021 SCT032 OVC055 M13/M15 A2998 RMK AO2 T11331155
KCNB 201235Z AUTO 29013KT 7SM -SN SCT021 BKN028 OVC065 M13/M15 A2998 RMK AO2 T11311151
KCNB 201215Z AUTO 28011KT 5SM -SN SCT023 SCT028 OVC065 M13/M15 A2997 RMK AO2 T11311151
KCNB 201155Z AUTO 28012G16KT 10SM OVC065 M13/M15 A2996 RMK AO2 T11301150 11112 21132
KCNB 201135Z AUTO 27013KT 10SM OVC065 M13/M15 A2994 RMK AO2 T11301150
KCNB 201115Z AUTO 28009G16KT 10SM OVC065 M13/M15 A2993 RMK AO2 T11301150